Time;durP1;ratioP1;P1;durP2;ratioP2;P2;SDS_P1;SDS_P2;PMS_P1;PMS_P2;Temp;Humidity;BMP_temperature;BMP_pressure;BME280_temperature;BME280_humidity;BME280_pressure;Samples;Min_cycle;Max_cycle;Signal;HPM_P1;HPM_P2
2022/02/14 00:02:18;;;;;;;68.45;29.40;;;;;;;;;;4953135;28;20177;-73
2022/02/14 00:04:44;;;;;;;66.00;27.63;;;;;;;;;;4951635;28;20495;-73
2022/02/14 00:07:11;;;;;;;64.47;27.60;;;;;;;;;;4951144;28;20162;-74
2022/02/14 00:09:37;;;;;;;59.58;27.25;;;;;;;;;;4953265;28;20135;-73
2022/02/14 00:12:11;;;;;;;59.90;27.23;;;;;;;;;;4952428;28;20043;-72
2022/02/14 00:14:37;;;;;;;64.47;26.52;;;;;;;;;;4951717;28;20130;-72
2022/02/14 00:17:04;;;;;;;58.03;26.50;;;;;;;;;;4953268;28;20083;-72
2022/02/14 00:19:37;;;;;;;59.22;26.23;;;;;;;;;;4951598;28;20177;-73
2022/02/14 00:22:03;;;;;;;64.90;26.55;;;;;;;;;;4952079;28;20063;-72
2022/02/14 00:24:29;;;;;;;65.00;26.58;;;;;;;;;;4951587;28;20078;-73
2022/02/14 00:27:03;;;;;;;55.60;23.77;;;;;;;;;;4949488;28;20086;-72
2022/02/14 00:29:29;;;;;;;65.82;26.13;;;;;;;;;;4953475;28;20138;-72
2022/02/14 00:31:56;;;;;;;61.45;25.45;;;;;;;;;;4950770;28;20575;-72
2022/02/14 00:34:22;;;;;;;56.40;25.05;;;;;;;;;;4951190;28;20130;-72
2022/02/14 00:36:49;;;;;;;57.60;25.73;;;;;;;;;;4953330;28;20495;-72
2022/02/14 00:39:17;;;;;;;61.67;24.55;;;;;;;;;;4959129;28;20046;-72
2022/02/14 00:41:44;;;;;;;60.97;24.05;;;;;;;;;;4952824;28;20134;-72
2022/02/14 00:44:11;;;;;;;47.33;23.77;;;;;;;;;;4957663;28;20082;-72
2022/02/14 00:46:37;;;;;;;56.65;22.65;;;;;;;;;;4953843;28;20047;-72
2022/02/14 00:49:04;;;;;;;62.65;25.70;;;;;;;;;;4956067;28;20130;-73
2022/02/14 00:51:30;;;;;;;56.53;22.85;;;;;;;;;;4959622;28;20085;-73
2022/02/14 00:53:57;;;;;;;49.88;21.60;;;;;;;;;;4956737;28;20134;-73
2022/02/14 00:56:24;;;;;;;58.47;24.40;;;;;;;;;;4955077;28;20135;-72
2022/02/14 00:58:50;;;;;;;58.63;24.13;;;;;;;;;;4955454;28;20059;-72
2022/02/14 01:01:17;;;;;;;49.35;22.67;;;;;;;;;;4958148;28;20309;-72
2022/02/14 01:03:43;;;;;;;59.65;23.25;;;;;;;;;;4956616;28;20047;-73
2022/02/14 01:06:11;;;;;;;52.72;21.73;;;;;;;;;;4953865;28;20450;-73
2022/02/14 01:08:37;;;;;;;50.40;23.17;;;;;;;;;;4952875;28;20082;-73
2022/02/14 01:11:11;;;;;;;50.05;22.38;;;;;;;;;;4955943;28;20051;-72
2022/02/14 01:13:37;;;;;;;46.07;20.63;;;;;;;;;;4957524;28;20082;-72
2022/02/14 01:16:04;;;;;;;52.80;22.40;;;;;;;;;;4955590;28;20130;-72
2022/02/14 01:18:37;;;;;;;47.00;20.98;;;;;;;;;;4957790;28;20047;-73
2022/02/14 01:21:03;;;;;;;47.28;21.13;;;;;;;;;;4956390;28;20142;-72
2022/02/14 01:23:30;;;;;;;52.88;21.45;;;;;;;;;;4954479;28;20073;-72
2022/02/14 01:26:03;;;;;;;52.53;21.27;;;;;;;;;;4953341;28;20146;-73
2022/02/14 01:28:29;;;;;;;42.50;18.48;;;;;;;;;;4955086;28;20605;-73
2022/02/14 01:30:56;;;;;;;47.30;18.92;;;;;;;;;;4953478;28;20126;-73
2022/02/14 01:33:22;;;;;;;39.83;19.13;;;;;;;;;;4957773;28;20130;-73
2022/02/14 01:35:52;;;;;;;48.92;17.58;;;;;;;;;;4957578;28;20566;-73
2022/02/14 01:38:18;;;;;;;45.13;18.95;;;;;;;;;;4956509;28;20125;-73
2022/02/14 01:40:45;;;;;;;39.38;18.70;;;;;;;;;;4953959;28;20193;-74
2022/02/14 01:43:15;;;;;;;43.55;19.02;;;;;;;;;;4960938;28;20555;-73
2022/02/14 01:45:42;;;;;;;44.13;17.83;;;;;;;;;;4956315;28;20570;-74
2022/02/14 01:48:09;;;;;;;43.08;16.95;;;;;;;;;;4961213;28;20114;-73
2022/02/14 01:50:36;;;;;;;39.15;17.05;;;;;;;;;;4956630;28;20142;-74
2022/02/14 01:53:03;;;;;;;47.17;16.50;;;;;;;;;;4953823;28;20134;-74
2022/02/14 01:55:30;;;;;;;37.72;16.15;;;;;;;;;;4954295;28;20094;-74
2022/02/14 01:57:56;;;;;;;38.92;17.15;;;;;;;;;;4957854;28;20289;-74
2022/02/14 02:00:25;;;;;;;38.00;16.67;;;;;;;;;;4954066;28;20091;-74
2022/02/14 02:02:59;;;;;;;36.05;16.15;;;;;;;;;;4955774;28;20053;-74
2022/02/14 02:05:26;;;;;;;36.17;14.43;;;;;;;;;;4957827;28;20086;-74
2022/02/14 02:07:52;;;;;;;34.92;15.20;;;;;;;;;;4956103;28;20378;-73
2022/02/14 02:10:19;;;;;;;43.78;15.77;;;;;;;;;;4953480;28;20143;-74
2022/02/14 02:13:04;;;;;;;37.77;15.80;;;;;;;;;;4954584;28;20051;-74
2022/02/14 02:15:37;;;;;;;39.92;15.30;;;;;;;;;;4953660;28;20366;-74
2022/02/14 02:18:07;;;;;;;35.60;14.20;;;;;;;;;;4955894;28;20062;-74
2022/02/14 02:20:35;;;;;;;36.60;16.73;;;;;;;;;;4953759;28;20145;-74
2022/02/14 02:23:02;;;;;;;38.58;16.48;;;;;;;;;;4953078;28;20129;-74
2022/02/14 02:25:28;;;;;;;39.45;17.00;;;;;;;;;;4953098;28;20087;-74
2022/02/14 02:27:55;;;;;;;37.13;16.38;;;;;;;;;;4952502;28;20106;-74
2022/02/14 02:30:22;;;;;;;33.83;15.27;;;;;;;;;;4951678;28;20138;-74
2022/02/14 02:32:50;;;;;;;47.67;16.65;;;;;;;;;;4957686;28;20062;-74
2022/02/14 02:35:16;;;;;;;37.23;14.57;;;;;;;;;;4952584;28;20091;-74
2022/02/14 02:37:49;;;;;;;34.85;15.98;;;;;;;;;;4955189;28;20370;-74
2022/02/14 02:40:15;;;;;;;39.88;15.65;;;;;;;;;;4953741;28;20150;-74
2022/02/14 02:42:42;;;;;;;36.53;15.77;;;;;;;;;;4953914;28;20617;-74
2022/02/14 02:45:08;;;;;;;37.38;16.20;;;;;;;;;;4952484;28;20055;-74
2022/02/14 02:47:35;;;;;;;38.92;16.88;;;;;;;;;;4954970;28;20078;-74
2022/02/14 02:50:02;;;;;;;32.73;15.50;;;;;;;;;;4951842;28;20113;-74
2022/02/14 02:52:28;;;;;;;34.73;16.37;;;;;;;;;;4956612;28;20134;-74
2022/02/14 02:54:56;;;;;;;33.03;16.23;;;;;;;;;;4956834;28;20137;-74
2022/02/14 02:57:23;;;;;;;38.45;16.25;;;;;;;;;;4953865;28;20074;-74
2022/02/14 02:59:50;;;;;;;32.33;15.77;;;;;;;;;;4952203;28;20051;-74
2022/02/14 03:02:16;;;;;;;30.95;15.43;;;;;;;;;;4952790;28;20571;-74
2022/02/14 03:04:49;;;;;;;35.63;15.93;;;;;;;;;;4954589;28;20134;-74
2022/02/14 03:07:16;;;;;;;30.02;14.95;;;;;;;;;;4953735;28;20138;-74
2022/02/14 03:09:43;;;;;;;35.43;15.83;;;;;;;;;;4966678;28;20139;-74
2022/02/14 03:12:19;;;;;;;33.67;15.55;;;;;;;;;;4953236;28;20510;-74
2022/02/14 03:14:47;;;;;;;31.48;14.38;;;;;;;;;;4955045;28;20059;-74
2022/02/14 03:17:13;;;;;;;33.05;15.50;;;;;;;;;;4954858;28;20224;-74
2022/02/14 03:19:41;;;;;;;;;;;;;;;;;;4951988;28;20485;-73
2022/02/14 03:22:07;;;;;;;31.88;14.35;;;;;;;;;;4955036;28;19972;-73
2022/02/14 03:24:34;;;;;;;38.22;15.27;;;;;;;;;;4951735;28;20086;-73
2022/02/14 03:27:02;;;;;;;41.25;16.38;;;;;;;;;;4957677;28;20079;-74
2022/02/14 03:29:28;;;;;;;33.30;15.82;;;;;;;;;;4952156;28;20078;-73
2022/02/14 03:31:55;;;;;;;36.58;16.02;;;;;;;;;;4953074;28;20079;-74
2022/02/14 03:34:23;;;;;;;37.80;16.73;;;;;;;;;;4957453;28;20137;-74
2022/02/14 03:36:49;;;;;;;41.50;16.92;;;;;;;;;;4952462;28;20833;-74
2022/02/14 03:39:16;;;;;;;30.75;16.10;;;;;;;;;;4953956;28;20106;-74
2022/02/14 03:41:43;;;;;;;36.67;16.30;;;;;;;;;;4954842;28;20492;-74
2022/02/14 03:44:10;;;;;;;31.20;12.37;;;;;;;;;;4952554;28;20139;-74
2022/02/14 03:46:36;;;;;;;33.58;15.98;;;;;;;;;;4954918;28;20051;-74
2022/02/14 03:49:04;;;;;;;36.85;16.98;;;;;;;;;;4953590;28;20134;-74
2022/02/14 03:51:31;;;;;;;44.90;18.05;;;;;;;;;;4952824;28;20081;-74
2022/02/14 03:53:58;;;;;;;32.00;16.48;;;;;;;;;;4952381;28;20051;-74
2022/02/14 03:56:27;;;;;;;35.42;16.60;;;;;;;;;;4951245;28;20138;-74
2022/02/14 03:58:53;;;;;;;32.08;17.00;;;;;;;;;;4947918;28;20134;-74
2022/02/14 04:01:20;;;;;;;42.35;18.67;;;;;;;;;;4953563;28;20817;-74
2022/02/14 04:03:53;;;;;;;39.88;16.60;;;;;;;;;;4948863;28;20079;-74
2022/02/14 04:06:19;;;;;;;37.20;16.35;;;;;;;;;;4951692;28;20149;-74
2022/02/14 04:08:46;;;;;;;40.47;18.33;;;;;;;;;;4952428;28;20078;-74
2022/02/14 04:11:19;;;;;;;41.17;17.83;;;;;;;;;;4954963;28;20117;-74
2022/02/14 04:13:45;;;;;;;38.97;17.23;;;;;;;;;;4953678;28;20055;-74
2022/02/14 04:16:12;;;;;;;35.80;17.70;;;;;;;;;;4950356;28;20086;-74
2022/02/14 04:18:39;;;;;;;35.58;16.45;;;;;;;;;;4951162;28;20122;-74
2022/02/14 04:21:05;;;;;;;33.10;17.38;;;;;;;;;;4953865;28;20105;-74
2022/02/14 04:23:32;;;;;;;38.75;18.55;;;;;;;;;;4953294;28;20122;-74
2022/02/14 04:26:02;;;;;;;44.50;19.05;;;;;;;;;;4951325;28;20507;-74
2022/02/14 04:28:29;;;;;;;50.33;20.15;;;;;;;;;;4951327;28;20126;-74
2022/02/14 04:30:55;;;;;;;48.10;21.60;;;;;;;;;;4951654;28;20129;-74
2022/02/14 04:33:22;;;;;;;42.03;19.07;;;;;;;;;;4950447;28;20134;-74
2022/02/14 04:35:48;;;;;;;42.88;21.15;;;;;;;;;;4950353;28;20507;-74
2022/02/14 04:38:15;;;;;;;46.10;21.13;;;;;;;;;;4952398;28;20178;-74
2022/02/14 04:40:45;;;;;;;41.15;20.63;;;;;;;;;;4950485;28;20070;-74
2022/02/14 04:43:11;;;;;;;45.58;23.20;;;;;;;;;;4952993;28;20135;-73
2022/02/14 04:45:38;;;;;;;43.83;22.50;;;;;;;;;;4951996;28;20471;-73
2022/02/14 04:48:05;;;;;;;37.85;19.50;;;;;;;;;;4951466;28;20423;-73
2022/02/14 04:50:31;;;;;;;52.72;23.17;;;;;;;;;;4960846;28;20384;-74
2022/02/14 04:52:57;;;;;;;47.72;23.10;;;;;;;;;;4951862;28;20085;-74
2022/02/14 04:55:26;;;;;;;43.53;20.55;;;;;;;;;;4952465;28;20102;-73
2022/02/14 04:57:53;;;;;;;46.95;23.25;;;;;;;;;;4949887;28;20142;-74
2022/02/14 05:00:20;;;;;;;45.17;21.98;;;;;;;;;;4952292;28;20055;-72
2022/02/14 05:02:49;;;;;;;41.65;21.17;;;;;;;;;;4954395;28;20129;-73
2022/02/14 05:05:19;;;;;;;45.00;22.73;;;;;;;;;;4950138;28;20721;-73
2022/02/14 05:07:47;;;;;;;49.50;23.80;;;;;;;;;;4950007;28;20114;-73
2022/02/14 05:10:20;;;;;;;53.80;23.85;;;;;;;;;;4954033;28;20142;-73
2022/02/14 05:12:47;;;;;;;51.78;24.85;;;;;;;;;;4951966;28;20130;-73
2022/02/14 05:15:13;;;;;;;51.70;25.80;;;;;;;;;;4954880;28;20059;-73
2022/02/14 05:17:46;;;;;;;56.13;23.50;;;;;;;;;;4956217;28;20118;-72
2022/02/14 05:20:12;;;;;;;51.92;26.17;;;;;;;;;;4943887;28;20174;-73
2022/02/14 05:22:38;;;;;;;55.22;25.35;;;;;;;;;;4939974;28;20150;-73
2022/02/14 05:25:06;;;;;;;;;;;;;;;;;;4941311;28;20462;-73
2022/02/14 05:27:33;;;;;;;48.28;22.42;;;;;;;;;;4942983;28;20036;-74
2022/02/14 05:29:59;;;;;;;57.00;24.92;;;;;;;;;;4941184;28;20170;-73
2022/02/14 05:32:26;;;;;;;61.35;26.13;;;;;;;;;;4942837;28;20173;-74
2022/02/14 05:34:54;;;;;;;60.83;27.27;;;;;;;;;;4940172;28;20074;-73
2022/02/14 05:37:20;;;;;;;57.15;28.15;;;;;;;;;;4942345;28;20139;-73
2022/02/14 05:39:47;;;;;;;53.25;26.98;;;;;;;;;;4945079;28;20227;-72
2022/02/14 05:42:14;;;;;;;51.38;21.45;;;;;;;;;;4941058;28;20598;-73
2022/02/14 05:44:40;;;;;;;65.85;28.77;;;;;;;;;;4943119;28;20142;-73
2022/02/14 05:47:08;;;;;;;65.55;29.98;;;;;;;;;;4940176;28;20467;-73
2022/02/14 05:49:34;;;;;;;66.20;30.30;;;;;;;;;;4940749;28;20054;-73
2022/02/14 05:52:01;;;;;;;64.25;30.67;;;;;;;;;;4941773;28;20166;-73
2022/02/14 05:54:28;;;;;;;64.40;28.95;;;;;;;;;;4943418;28;20062;-73
2022/02/14 05:56:54;;;;;;;60.75;28.65;;;;;;;;;;4954430;28;20090;-73
2022/02/14 05:59:21;;;;;;;61.97;28.23;;;;;;;;;;4955646;28;20126;-73
2022/02/14 06:01:48;;;;;;;61.70;27.90;;;;;;;;;;4951704;28;20689;-73
2022/02/14 06:04:14;;;;;;;66.75;30.98;;;;;;;;;;4941511;28;20150;-73
2022/02/14 06:06:41;;;;;;;68.50;31.77;;;;;;;;;;4940210;28;20130;-73
2022/02/14 06:09:08;;;;;;;73.22;30.83;;;;;;;;;;4942787;28;20089;-73
2022/02/14 06:11:34;;;;;;;66.32;28.90;;;;;;;;;;4941645;28;20146;-72
2022/02/14 06:14:01;;;;;;;68.70;31.23;;;;;;;;;;4942374;28;20139;-73
2022/02/14 06:16:27;;;;;;;69.77;32.27;;;;;;;;;;4942576;28;20055;-73
2022/02/14 06:18:54;;;;;;;64.28;31.38;;;;;;;;;;4942752;28;20717;-74
2022/02/14 06:21:23;;;;;;;62.33;30.80;;;;;;;;;;4941032;28;20058;-73
2022/02/14 06:23:54;;;;;;;66.28;30.35;;;;;;;;;;4944157;28;20054;-73
2022/02/14 06:26:20;;;;;;;69.18;32.05;;;;;;;;;;4942500;28;20625;-73
2022/02/14 06:28:47;;;;;;;71.65;31.27;;;;;;;;;;4941350;28;20134;-73
2022/02/14 06:31:21;;;;;;;67.55;30.55;;;;;;;;;;4939642;28;20055;-73
2022/02/14 06:33:47;;;;;;;59.45;29.48;;;;;;;;;;4942074;28;20158;-73
2022/02/14 06:36:13;;;;;;;63.53;30.20;;;;;;;;;;4939455;28;20146;-73
2022/02/14 06:38:43;;;;;;;65.38;29.40;;;;;;;;;;4940345;28;20061;-73
2022/02/14 06:41:09;;;;;;;60.25;28.95;;;;;;;;;;4941065;28;20154;-73
2022/02/14 06:43:36;;;;;;;58.70;28.35;;;;;;;;;;4940322;28;20594;-73
2022/02/14 06:46:03;;;;;;;48.35;22.08;;;;;;;;;;4942094;28;20112;-73
2022/02/14 06:48:30;;;;;;;71.40;29.00;;;;;;;;;;4942045;28;20085;-73
2022/02/14 06:50:57;;;;;;;54.60;27.83;;;;;;;;;;4940713;28;20805;-73
2022/02/14 06:53:27;;;;;;;67.65;29.80;;;;;;;;;;4942613;28;20137;-73
2022/02/14 06:55:56;;;;;;;58.85;26.83;;;;;;;;;;4938777;28;20098;-74
2022/02/14 06:58:23;;;;;;;64.05;28.92;;;;;;;;;;4939123;28;20615;-73
2022/02/14 07:00:52;;;;;;;63.30;29.35;;;;;;;;;;4943772;28;20047;-73
2022/02/14 07:03:19;;;;;;;59.53;27.70;;;;;;;;;;4939338;28;20063;-73
2022/02/14 07:05:46;;;;;;;61.70;29.80;;;;;;;;;;4939931;28;20302;-74
2022/02/14 07:08:16;;;;;;;60.63;30.17;;;;;;;;;;4943046;28;20067;-73
2022/02/14 07:10:42;;;;;;;55.92;27.65;;;;;;;;;;4937682;28;20130;-73
2022/02/14 07:13:09;;;;;;;55.47;27.73;;;;;;;;;;4939331;28;20138;-73
2022/02/14 07:15:36;;;;;;;59.00;27.25;;;;;;;;;;4941557;28;22326;-73
2022/02/14 07:18:02;;;;;;;62.35;27.02;;;;;;;;;;4939845;28;20599;-73
2022/02/14 07:20:29;;;;;;;59.35;30.25;;;;;;;;;;4946557;28;20109;-73
2022/02/14 07:22:57;;;;;;;70.40;34.88;;;;;;;;;;4956921;28;20078;-73
2022/02/14 07:25:23;;;;;;;59.80;31.00;;;;;;;;;;4950505;28;20570;-73
2022/02/14 07:27:50;;;;;;;60.67;29.15;;;;;;;;;;4954137;28;20086;-73
2022/02/14 07:30:23;;;;;;;74.85;36.05;;;;;;;;;;4953640;28;20075;-73
2022/02/14 07:32:50;;;;;;;66.93;40.00;;;;;;;;;;4956588;28;20719;-73
2022/02/14 07:35:16;;;;;;;68.40;31.23;;;;;;;;;;4937214;28;20183;-73
2022/02/14 07:37:47;;;;;;;62.58;31.63;;;;;;;;;;4938381;28;20142;-73
2022/02/14 07:40:14;;;;;;;56.10;29.98;;;;;;;;;;4940442;28;20169;-73
2022/02/14 07:42:40;;;;;;;60.45;28.15;;;;;;;;;;4938681;28;20149;-73
2022/02/14 07:45:10;;;;;;;57.53;26.70;;;;;;;;;;4939995;28;20134;-73
2022/02/14 07:47:37;;;;;;;61.03;32.33;;;;;;;;;;4940636;28;20979;-73
2022/02/14 07:50:06;;;;;;;51.53;29.05;;;;;;;;;;4951207;28;20134;-72
2022/02/14 07:52:33;;;;;;;63.50;27.45;;;;;;;;;;4947062;28;20462;-72
2022/02/14 07:55:03;;;;;;;54.83;27.70;;;;;;;;;;4937909;28;20130;-73
2022/02/14 07:57:32;;;;;;;61.20;27.83;;;;;;;;;;4938824;28;20051;-73
2022/02/14 08:00:01;;;;;;;54.28;25.02;;;;;;;;;;4940994;28;20158;-73
2022/02/14 08:02:27;;;;;;;53.53;26.27;;;;;;;;;;4937215;28;20549;-73
2022/02/14 08:04:54;;;;;;;51.72;24.85;;;;;;;;;;4937428;28;20145;-73
2022/02/14 08:07:29;;;;;;;61.25;34.45;;;;;;;;;;4939917;28;20113;-72
2022/02/14 08:10:16;;;;;;;54.75;24.85;;;;;;;;;;4937891;28;20059;-73
2022/02/14 08:12:43;;;;;;;42.15;22.60;;;;;;;;;;4942141;28;20138;-73
2022/02/14 08:15:10;;;;;;;49.58;24.27;;;;;;;;;;4937558;28;20172;-73
2022/02/14 08:17:37;;;;;;;49.33;23.05;;;;;;;;;;4939540;28;20197;-73
2022/02/14 08:20:04;;;;;;;54.60;25.15;;;;;;;;;;4939666;28;20566;-72
2022/02/14 08:22:30;;;;;;;44.70;23.50;;;;;;;;;;4936528;28;20135;-73
2022/02/14 08:24:57;;;;;;;49.83;23.77;;;;;;;;;;4940854;28;20126;-73
2022/02/14 08:27:27;;;;;;;47.47;24.35;;;;;;;;;;4941060;28;20453;-74
2022/02/14 08:29:56;;;;;;;50.92;24.92;;;;;;;;;;4938073;28;20053;-74
2022/02/14 08:32:22;;;;;;;53.45;23.23;;;;;;;;;;4945919;28;20138;-74
2022/02/14 08:34:49;;;;;;;47.97;21.63;;;;;;;;;;4945337;28;20130;-74
2022/02/14 08:37:15;;;;;;;42.00;20.60;;;;;;;;;;4939462;28;20138;-75
2022/02/14 08:39:42;;;;;;;43.88;21.92;;;;;;;;;;4938677;28;20101;-74
2022/02/14 08:42:09;;;;;;;49.90;22.02;;;;;;;;;;4939458;28;20059;-74
2022/02/14 08:44:35;;;;;;;50.17;23.92;;;;;;;;;;4939242;28;20134;-75
2022/02/14 08:47:02;;;;;;;43.30;22.92;;;;;;;;;;4940370;28;20055;-73
2022/02/14 08:49:29;;;;;;;38.47;21.65;;;;;;;;;;4938932;28;20419;-74
2022/02/14 08:51:55;;;;;;;43.10;20.05;;;;;;;;;;4938036;28;20723;-74
2022/02/14 08:54:22;;;;;;;36.08;18.90;;;;;;;;;;4939324;28;20083;-75
2022/02/14 08:56:49;;;;;;;39.00;20.20;;;;;;;;;;4938455;28;20170;-74
2022/02/14 08:59:19;;;;;;;34.70;19.83;;;;;;;;;;4939100;28;20051;-75
2022/02/14 09:01:47;;;;;;;39.55;18.58;;;;;;;;;;4942614;28;20117;-74
2022/02/14 09:04:14;;;;;;;40.50;19.48;;;;;;;;;;4941549;28;20130;-73
2022/02/14 09:06:41;;;;;;;39.53;21.88;;;;;;;;;;4941964;28;20143;-74
2022/02/14 09:09:26;;;;;;;38.80;19.23;;;;;;;;;;4940481;28;20833;-74
2022/02/14 09:12:01;;;;;;;30.08;18.17;;;;;;;;;;4943401;28;20197;-74
2022/02/14 09:14:28;;;;;;;37.60;17.95;;;;;;;;;;4941424;28;20129;-74
2022/02/14 09:16:55;;;;;;;28.60;17.70;;;;;;;;;;4942054;28;20173;-74
2022/02/14 09:19:21;;;;;;;35.17;17.63;;;;;;;;;;4942455;28;20134;-74
2022/02/14 09:21:48;;;;;;;35.58;18.95;;;;;;;;;;4943651;28;21030;-77
2022/02/14 09:24:14;;;;;;;39.78;23.00;;;;;;;;;;4941059;28;20094;-74
2022/02/14 09:26:44;;;;;;;38.65;19.50;;;;;;;;;;4941246;28;20418;-74
2022/02/14 09:29:12;;;;;;;39.60;19.63;;;;;;;;;;4942528;28;20082;-75
2022/02/14 09:31:38;;;;;;;;;;;;;;;;;;4943066;28;20083;-74
2022/02/14 09:34:07;;;;;;;34.25;16.40;;;;;;;;;;4941056;28;20014;-74
2022/02/14 09:36:34;;;;;;;33.58;16.00;;;;;;;;;;4940160;28;20134;-74
2022/02/14 09:39:01;;;;;;;35.92;19.40;;;;;;;;;;4941930;28;20048;-73
2022/02/14 09:41:28;;;;;;;31.48;15.00;;;;;;;;;;4941337;28;20109;-74
2022/02/14 09:43:55;;;;;;;33.72;15.65;;;;;;;;;;4941397;28;20055;-74
2022/02/14 09:46:22;;;;;;;31.95;15.50;;;;;;;;;;4956977;28;20051;-74
2022/02/14 09:48:49;;;;;;;31.58;15.68;;;;;;;;;;4953130;28;20529;-74
2022/02/14 09:51:18;;;;;;;30.27;15.32;;;;;;;;;;4948926;28;20207;-74
2022/02/14 09:53:45;;;;;;;34.20;16.77;;;;;;;;;;4941043;28;20173;-74
2022/02/14 09:56:12;;;;;;;24.27;11.15;;;;;;;;;;4940010;28;20431;-74
2022/02/14 09:58:38;;;;;;;26.88;15.25;;;;;;;;;;4939397;28;20709;-74
2022/02/14 10:01:05;;;;;;;33.13;15.75;;;;;;;;;;4939385;28;20137;-74
2022/02/14 10:03:33;;;;;;;30.48;15.63;;;;;;;;;;4940812;28;20054;-75
2022/02/14 10:06:01;;;;;;;35.28;17.48;;;;;;;;;;4950992;28;20526;-74
2022/02/14 10:08:32;;;;;;;26.50;15.25;;;;;;;;;;4954382;28;20086;-74
2022/02/14 10:11:12;;;;;;;33.40;16.42;;;;;;;;;;4937235;28;20075;-74
2022/02/14 10:13:39;;;;;;;31.73;15.38;;;;;;;;;;4940968;28;20143;-74
2022/02/14 10:16:10;;;;;;;29.15;15.85;;;;;;;;;;4940822;28;20057;-74
2022/02/14 10:18:38;;;;;;;28.00;16.38;;;;;;;;;;4940769;28;20561;-74
2022/02/14 10:21:21;;;;;;;31.27;16.35;;;;;;;;;;4940593;28;20055;-74
2022/02/14 10:24:15;;;;;;;27.13;15.27;;;;;;;;;;4940762;28;20141;-74
2022/02/14 10:26:45;;;;;;;27.25;15.02;;;;;;;;;;4938345;28;20421;-75
2022/02/14 10:29:16;;;;;;;30.92;15.40;;;;;;;;;;4941353;28;20138;-74
2022/02/14 10:31:47;;;;;;;28.90;16.35;;;;;;;;;;4940019;28;20066;-74
2022/02/14 10:34:15;;;;;;;32.20;19.17;;;;;;;;;;4941653;28;20130;-74
2022/02/14 10:36:43;;;;;;;25.73;15.07;;;;;;;;;;4940313;28;20170;-74
2022/02/14 10:39:10;;;;;;;31.67;15.88;;;;;;;;;;4941086;28;20078;-74
2022/02/14 10:41:37;;;;;;;35.88;18.02;;;;;;;;;;4942615;28;20043;-74
2022/02/14 10:44:11;;;;;;;28.67;16.60;;;;;;;;;;4943346;28;20126;-74
2022/02/14 10:46:37;;;;;;;27.98;16.73;;;;;;;;;;4941923;28;20065;-74
2022/02/14 10:49:04;;;;;;;30.50;14.55;;;;;;;;;;4944196;28;20051;-74
2022/02/14 10:51:53;;;;;;;36.78;16.90;;;;;;;;;;4941595;28;20141;-74
2022/02/14 10:54:20;;;;;;;30.75;15.70;;;;;;;;;;4945174;28;20051;-74
2022/02/14 10:56:47;;;;;;;28.13;13.93;;;;;;;;;;4941912;28;20057;-73
2022/02/14 10:59:17;;;;;;;30.00;14.85;;;;;;;;;;4941484;28;20508;-74
2022/02/14 11:01:43;;;;;;;27.35;14.18;;;;;;;;;;4940179;28;20063;-74
2022/02/14 11:04:10;;;;;;;35.37;14.83;;;;;;;;;;4942739;28;20133;-74
2022/02/14 11:06:37;;;;;;;41.30;23.42;;;;;;;;;;4940946;28;20348;-74
2022/02/14 11:09:04;;;;;;;37.22;18.67;;;;;;;;;;4940934;28;20133;-74
2022/02/14 11:11:35;;;;;;;35.40;16.77;;;;;;;;;;4940701;28;20171;-74
2022/02/14 11:14:02;;;;;;;30.80;17.67;;;;;;;;;;4941410;28;20090;-73
2022/02/14 11:16:31;;;;;;;30.55;17.50;;;;;;;;;;4943158;28;20524;-74
2022/02/14 11:19:01;;;;;;;33.22;15.73;;;;;;;;;;4939464;28;20553;-74
2022/02/14 11:21:31;;;;;;;27.67;15.38;;;;;;;;;;4939999;28;20146;-74
2022/02/14 11:23:58;;;;;;;35.75;19.10;;;;;;;;;;4941931;28;20539;-74
2022/02/14 11:26:55;;;;;;;29.25;14.50;;;;;;;;;;4940032;28;20078;-74
2022/02/14 11:29:27;;;;;;;26.98;14.90;;;;;;;;;;4942066;28;20091;-74
2022/02/14 11:32:13;;;;;;;32.25;15.75;;;;;;;;;;4940717;28;20082;-73
2022/02/14 11:35:18;;;;;;;34.50;17.05;;;;;;;;;;4940491;28;20058;-74
2022/02/14 11:37:50;;;;;;;34.45;14.68;;;;;;;;;;4941152;28;20126;-74
2022/02/14 11:40:26;;;;;;;26.17;15.32;;;;;;;;;;4937869;28;20189;-74
2022/02/14 11:43:05;;;;;;;30.45;15.55;;;;;;;;;;4939834;28;20141;-73
2022/02/14 11:45:32;;;;;;;31.23;16.23;;;;;;;;;;4939462;28;20061;-74
2022/02/14 11:48:17;;;;;;;27.92;15.35;;;;;;;;;;4940287;28;20503;-74
2022/02/14 11:50:44;;;;;;;26.13;15.70;;;;;;;;;;4939577;28;20146;-76
2022/02/14 11:53:29;;;;;;;34.35;14.80;;;;;;;;;;4940858;28;20082;-73
2022/02/14 11:56:15;;;;;;;26.48;13.02;;;;;;;;;;4939579;28;20497;-74
2022/02/14 11:59:01;;;;;;;32.35;15.38;;;;;;;;;;4938714;28;20130;-74
2022/02/14 12:01:28;;;;;;;25.77;13.75;;;;;;;;;;4941258;28;20138;-74
2022/02/14 12:04:15;;;;;;;26.20;14.10;;;;;;;;;;4940169;28;20062;-74
2022/02/14 12:07:00;;;;;;;24.90;12.93;;;;;;;;;;4941018;28;20450;-74
2022/02/14 12:09:27;;;;;;;33.47;15.60;;;;;;;;;;4939685;28;20577;-73
2022/02/14 12:11:53;;;;;;;25.88;14.13;;;;;;;;;;4939506;28;20515;-74
2022/02/14 12:14:26;;;;;;;25.48;13.85;;;;;;;;;;4940887;28;20082;-74
2022/02/14 12:20:34;;;;;;;25.40;13.02;;;;;;;;;;4943103;28;20066;-74
2022/02/14 12:22:56;;;;;;;26.40;13.25;;;;;;;;;;4939686;28;20059;-75
2022/02/14 12:25:23;;;;;;;23.38;12.25;;;;;;;;;;4940726;28;20138;-75
2022/02/14 12:27:49;;;;;;;25.75;13.32;;;;;;;;;;4943282;28;20075;-74
2022/02/14 12:30:20;;;;;;;26.90;14.30;;;;;;;;;;4939447;28;20051;-74
2022/02/14 12:32:49;;;;;;;28.23;15.40;;;;;;;;;;4940270;28;20055;-74
2022/02/14 12:35:28;;;;;;;29.83;15.23;;;;;;;;;;4943612;28;20078;-75
2022/02/14 12:37:55;;;;;;;32.95;15.18;;;;;;;;;;4950946;28;20133;-73
2022/02/14 12:40:46;;;;;;;29.73;14.88;;;;;;;;;;4953497;28;20614;-75
2022/02/14 12:43:33;;;;;;;23.95;14.45;;;;;;;;;;4951772;28;20059;-74
2022/02/14 12:46:00;;;;;;;45.67;27.38;;;;;;;;;;4956426;28;20570;-74
2022/02/14 12:48:27;;;;;;;29.58;18.60;;;;;;;;;;4956004;28;20074;-73
2022/02/14 12:50:53;;;;;;;31.13;16.67;;;;;;;;;;4957731;28;20098;-74
2022/02/14 12:53:21;;;;;;;31.00;15.38;;;;;;;;;;4955918;28;20142;-73
2022/02/14 12:55:47;;;;;;;30.42;15.05;;;;;;;;;;4956216;28;20071;-73
2022/02/14 12:58:15;;;;;;;29.80;15.20;;;;;;;;;;4950734;28;20867;-73
2022/02/14 13:00:49;;;;;;;25.73;16.33;;;;;;;;;;4955134;28;20158;-74
2022/02/14 13:03:19;;;;;;;38.77;15.27;;;;;;;;;;4954679;28;20073;-74
2022/02/14 13:05:50;;;;;;;34.53;15.75;;;;;;;;;;4954646;28;20141;-74
2022/02/14 13:08:27;;;;;;;27.05;14.88;;;;;;;;;;4954406;28;20172;-74
2022/02/14 13:10:53;;;;;;;31.45;17.13;;;;;;;;;;4953297;28;20070;-73
2022/02/14 13:13:30;;;;;;;37.60;15.65;;;;;;;;;;4953213;28;20054;-74
2022/02/14 13:16:00;;;;;;;36.38;15.80;;;;;;;;;;4952851;28;20130;-74
2022/02/14 13:18:40;;;;;;;28.40;14.68;;;;;;;;;;4956959;28;20606;-74
2022/02/14 13:21:10;;;;;;;36.28;15.35;;;;;;;;;;4957176;28;20086;-73
2022/02/14 13:23:36;;;;;;;34.88;14.82;;;;;;;;;;4953606;28;20147;-73
2022/02/14 13:26:03;;;;;;;38.40;14.90;;;;;;;;;;4955969;28;20077;-73
2022/02/14 13:28:40;;;;;;;31.63;14.88;;;;;;;;;;4956138;28;20093;-72
2022/02/14 13:31:06;;;;;;;32.28;13.27;;;;;;;;;;4958362;28;20145;-72
2022/02/14 13:33:33;;;;;;;32.85;14.68;;;;;;;;;;4958644;28;20134;-72
2022/02/14 13:36:05;;;;;;;32.05;14.55;;;;;;;;;;4955091;28;20089;-74
2022/02/14 13:38:32;;;;;;;30.75;14.10;;;;;;;;;;4956442;28;20066;-73
2022/02/14 13:41:02;;;;;;;30.25;14.00;;;;;;;;;;4952805;28;20480;-73
2022/02/14 13:43:33;;;;;;;33.53;14.23;;;;;;;;;;4957413;28;20489;-72
2022/02/14 13:46:01;;;;;;;32.63;13.73;;;;;;;;;;4954207;28;20089;-73
2022/02/14 13:48:29;;;;;;;27.05;13.15;;;;;;;;;;4954796;28;20548;-72
2022/02/14 13:51:05;;;;;;;30.58;14.63;;;;;;;;;;4956057;28;20078;-72
2022/02/14 13:53:33;;;;;;;28.55;14.18;;;;;;;;;;4952171;28;20150;-73
2022/02/14 13:56:01;;;;;;;23.63;11.85;;;;;;;;;;4959720;28;20078;-73
2022/02/14 13:58:28;;;;;;;24.80;12.32;;;;;;;;;;4953980;28;20101;-73
2022/02/14 14:00:55;;;;;;;28.10;12.60;;;;;;;;;;4954168;28;20142;-73
2022/02/14 14:03:25;;;;;;;31.10;13.15;;;;;;;;;;4953076;28;20051;-72
2022/02/14 14:05:52;;;;;;;21.58;11.43;;;;;;;;;;4956813;28;20087;-72
2022/02/14 14:08:46;;;;;;;25.27;10.93;;;;;;;;;;4955051;28;20093;-73
2022/02/14 14:11:26;;;;;;;27.08;12.00;;;;;;;;;;4954338;28;20051;-73
2022/02/14 14:13:56;;;;;;;22.83;11.27;;;;;;;;;;4955448;28;20082;-73
2022/02/14 14:16:27;;;;;;;17.20;10.50;;;;;;;;;;4955859;28;20082;-73
2022/02/14 14:18:54;;;;;;;22.20;10.90;;;;;;;;;;4953411;28;20503;-72
2022/02/14 14:21:21;;;;;;;19.40;10.60;;;;;;;;;;4953472;28;20058;-72
2022/02/14 14:23:55;;;;;;;20.60;10.80;;;;;;;;;;4954416;28;20114;-72
2022/02/14 14:26:24;;;;;;;22.20;11.48;;;;;;;;;;4953922;28;20114;-73
2022/02/14 14:28:51;;;;;;;19.73;11.60;;;;;;;;;;4960567;28;20125;-72
2022/02/14 14:31:20;;;;;;;23.23;12.20;;;;;;;;;;4953051;28;20055;-71
2022/02/14 14:33:50;;;;;;;20.75;12.52;;;;;;;;;;4954449;28;20401;-71